createdAt,value
2023-12-23T00:01:56.366Z,4.00
2023-12-23T00:04:25.876Z,4.00
2023-12-23T00:06:53.931Z,4.00
2023-12-23T00:09:22.435Z,4.00
2023-12-23T00:11:51.490Z,4.00
2023-12-23T00:14:19.759Z,4.00
2023-12-23T00:16:48.368Z,4.00
2023-12-23T00:19:16.708Z,3.90
2023-12-23T00:21:46.313Z,4.00
2023-12-23T00:24:14.445Z,4.00
2023-12-23T00:26:42.493Z,4.10
2023-12-23T00:29:10.661Z,4.00
2023-12-23T00:31:39.290Z,4.00
2023-12-23T00:34:07.404Z,4.10
2023-12-23T00:36:35.479Z,4.10
2023-12-23T00:39:05.206Z,4.10
2023-12-23T00:41:33.435Z,4.10
2023-12-23T00:44:02.234Z,4.20
2023-12-23T00:46:30.432Z,4.20
2023-12-23T00:48:58.685Z,4.20
2023-12-23T00:51:26.840Z,4.20
2023-12-23T00:53:55.041Z,4.10
2023-12-23T00:56:25.144Z,4.10
2023-12-23T00:58:53.402Z,4.10
2023-12-23T01:01:21.549Z,4.10
2023-12-23T01:03:49.764Z,4.10
2023-12-23T01:06:17.925Z,4.10
2023-12-23T01:08:46.187Z,4.00
2023-12-23T01:11:14.466Z,4.00
2023-12-23T01:13:43.991Z,4.00
2023-12-23T01:16:12.252Z,4.00
2023-12-23T01:18:40.428Z,4.00
2023-12-23T01:21:08.604Z,3.90
2023-12-23T01:23:36.730Z,4.00
2023-12-23T01:26:05.060Z,4.00
2023-12-23T01:28:33.195Z,4.00
2023-12-23T01:31:02.725Z,4.00
2023-12-23T01:33:31.287Z,4.00
2023-12-23T01:35:59.545Z,4.00
2023-12-23T01:38:27.680Z,4.00
2023-12-23T01:40:56.200Z,4.00
2023-12-23T01:43:24.333Z,4.00
2023-12-23T01:45:55.137Z,4.00
2023-12-23T01:48:25.619Z,4.00
2023-12-23T01:50:55.298Z,4.00
2023-12-23T01:53:23.845Z,4.00
2023-12-23T01:55:52.153Z,3.90
2023-12-23T01:58:20.851Z,3.90
2023-12-23T02:00:49.098Z,3.90
2023-12-23T02:03:17.486Z,3.80
2023-12-23T02:05:48.689Z,3.80
2023-12-23T02:08:17.241Z,3.90
2023-12-23T02:10:46.037Z,3.90
2023-12-23T02:13:23.877Z,3.90
2023-12-23T02:15:55.496Z,3.90
2023-12-23T02:18:26.751Z,3.90
2023-12-23T02:20:58.085Z,3.90
2023-12-23T02:23:26.288Z,3.90
2023-12-23T02:25:59.616Z,3.90
2023-12-23T02:28:27.887Z,3.90
2023-12-23T02:30:56.773Z,3.90
2023-12-23T02:33:28.601Z,4.00
2023-12-23T02:35:58.028Z,3.90
2023-12-23T02:38:26.120Z,3.90
2023-12-23T02:40:54.191Z,4.00
2023-12-23T02:43:22.345Z,3.90
2023-12-23T02:45:50.422Z,3.90
2023-12-23T02:48:18.705Z,3.90
2023-12-23T02:50:46.813Z,3.80
2023-12-23T02:53:16.284Z,3.70
2023-12-23T02:55:44.715Z,3.70
2023-12-23T02:58:12.918Z,3.70
2023-12-23T03:00:41.123Z,3.70
2023-12-23T03:03:09.273Z,3.70
2023-12-23T03:05:37.843Z,3.60
2023-12-23T03:08:06.504Z,3.60
2023-12-23T03:10:35.983Z,3.70
2023-12-23T03:13:04.337Z,3.70
2023-12-23T03:15:32.453Z,3.70
2023-12-23T03:18:00.586Z,3.70
2023-12-23T03:20:28.727Z,3.70
2023-12-23T03:22:59.947Z,3.70
2023-12-23T03:25:28.110Z,3.80
2023-12-23T03:27:57.640Z,3.80
2023-12-23T03:30:25.817Z,3.80
2023-12-23T03:32:54.176Z,3.90
2023-12-23T03:35:23.152Z,3.90
2023-12-23T03:37:51.393Z,3.90
2023-12-23T03:40:19.543Z,3.90
2023-12-23T03:42:51.182Z,4.00
2023-12-23T03:45:21.136Z,4.00
2023-12-23T03:47:50.856Z,4.00
2023-12-23T03:50:19.274Z,4.10
2023-12-23T03:52:47.630Z,4.10
2023-12-23T03:55:15.856Z,4.10
2023-12-23T03:57:45.902Z,4.10
2023-12-23T04:00:15.073Z,4.10
2023-12-23T04:02:44.552Z,4.10
2023-12-23T04:05:12.908Z,4.20
2023-12-23T04:07:44.269Z,4.20
2023-12-23T04:10:12.388Z,4.20
2023-12-23T04:12:41.236Z,4.20
2023-12-23T04:15:10.126Z,4.20
2023-12-23T04:17:40.249Z,4.20
2023-12-23T04:20:10.992Z,4.20
2023-12-23T04:22:39.202Z,4.20
2023-12-23T04:25:08.163Z,4.20
2023-12-23T04:27:36.215Z,4.20
2023-12-23T04:30:04.948Z,4.10
2023-12-23T04:32:34.038Z,4.10
2023-12-23T04:35:02.309Z,4.10
2023-12-23T04:37:31.849Z,4.10
2023-12-23T04:39:59.982Z,4.10
2023-12-23T04:42:28.054Z,4.10
2023-12-23T04:44:56.125Z,4.10
2023-12-23T04:47:24.300Z,4.10
2023-12-23T04:49:52.571Z,4.10
2023-12-23T04:52:20.647Z,4.10
2023-12-23T04:54:50.086Z,4.10
2023-12-23T04:57:18.186Z,4.00
2023-12-23T04:59:45.368Z,4.00
2023-12-23T05:02:13.560Z,4.00
2023-12-23T05:04:43.905Z,4.00
2023-12-23T05:07:12.502Z,4.00
2023-12-23T05:09:40.604Z,3.90
2023-12-23T05:12:10.417Z,3.90
2023-12-23T05:14:38.658Z,3.80
2023-12-23T05:17:07.005Z,3.80
2023-12-23T05:19:35.958Z,3.70
2023-12-23T05:22:04.136Z,3.70
2023-12-23T05:24:32.458Z,3.70
2023-12-23T05:27:02.284Z,3.70
2023-12-23T05:29:32.049Z,3.70
2023-12-23T05:32:00.135Z,3.70
2023-12-23T05:34:28.325Z,3.70
2023-12-23T05:36:56.478Z,3.60
2023-12-23T05:39:24.604Z,3.60
2023-12-23T05:41:52.788Z,3.60
2023-12-23T05:44:20.893Z,3.60
2023-12-23T05:46:50.519Z,3.50
2023-12-23T05:49:21.748Z,3.50
2023-12-23T05:51:51.704Z,3.40
2023-12-23T05:54:19.783Z,3.40
2023-12-23T05:56:47.873Z,3.40
2023-12-23T05:59:16.135Z,3.30
2023-12-23T06:01:44.271Z,3.20
2023-12-23T06:04:13.814Z,3.20
2023-12-23T06:06:41.877Z,3.10
2023-12-23T06:09:10.193Z,3.00
2023-12-23T06:11:38.352Z,2.90
2023-12-23T06:14:06.544Z,2.80
2023-12-23T06:16:40.237Z,2.70
2023-12-23T06:19:08.630Z,2.70
2023-12-23T06:21:40.525Z,2.50
2023-12-23T06:24:09.099Z,2.50
2023-12-23T06:26:37.160Z,2.40
2023-12-23T06:29:05.399Z,2.40
2023-12-23T06:31:33.972Z,2.30
2023-12-23T06:34:02.282Z,2.20
2023-12-23T06:36:30.462Z,2.30
2023-12-23T06:38:59.903Z,2.30
2023-12-23T06:41:28.210Z,2.20
2023-12-23T06:43:56.359Z,2.20
2023-12-23T06:46:24.626Z,2.20
2023-12-23T06:48:54.378Z,2.20
2023-12-23T06:51:22.591Z,2.10
2023-12-23T06:53:51.423Z,2.10
2023-12-23T06:56:22.509Z,2.10
2023-12-23T06:58:51.200Z,2.20
2023-12-23T07:01:19.457Z,2.20
2023-12-23T07:03:47.577Z,2.20
2023-12-23T07:06:15.927Z,2.20
2023-12-23T07:08:44.034Z,2.20
2023-12-23T07:11:15.380Z,2.20
2023-12-23T07:13:44.949Z,2.20
2023-12-23T07:16:13.040Z,2.30
2023-12-23T07:18:41.214Z,2.30
2023-12-23T07:21:09.352Z,2.30
2023-12-23T07:23:37.455Z,2.30
2023-12-23T07:26:07.102Z,2.40
2023-12-23T07:28:35.256Z,2.40
2023-12-23T07:31:04.815Z,2.40
2023-12-23T07:33:33.290Z,2.40
2023-12-23T07:36:01.556Z,2.40
2023-12-23T07:38:29.767Z,2.40
2023-12-23T07:40:57.999Z,2.50
2023-12-23T07:43:26.166Z,2.70
2023-12-23T07:45:54.317Z,2.90
2023-12-23T07:48:23.910Z,3.00
2023-12-23T07:50:52.172Z,3.10
2023-12-23T07:53:20.411Z,3.20
2023-12-23T07:55:49.163Z,3.30
2023-12-23T07:58:17.249Z,3.30
2023-12-23T08:00:46.615Z,3.50
2023-12-23T08:03:15.481Z,3.60
2023-12-23T08:05:48.107Z,3.70
2023-12-23T08:08:16.832Z,3.70
2023-12-23T08:10:45.123Z,3.90
2023-12-23T08:13:13.397Z,3.90
2023-12-23T08:15:41.507Z,4.00
2023-12-23T08:18:09.788Z,4.10
2023-12-23T08:20:38.049Z,4.30
2023-12-23T08:23:08.474Z,4.50
2023-12-23T08:25:36.732Z,4.70
2023-12-23T08:28:05.804Z,4.90
2023-12-23T08:30:33.958Z,5.00
2023-12-23T08:33:02.179Z,5.10
2023-12-23T08:35:31.096Z,5.30
2023-12-23T08:37:59.306Z,5.40
2023-12-23T08:40:29.197Z,5.40
2023-12-23T08:42:57.296Z,5.40
2023-12-23T08:45:25.346Z,5.50
2023-12-23T08:47:53.795Z,5.60
2023-12-23T08:50:23.779Z,5.70
2023-12-23T08:52:51.977Z,5.80
2023-12-23T08:55:20.153Z,5.80
2023-12-23T08:57:49.874Z,5.90
2023-12-23T09:00:18.647Z,5.80
2023-12-23T09:02:46.893Z,5.80
2023-12-23T09:05:15.100Z,5.90
2023-12-23T09:07:43.826Z,6.00
2023-12-23T09:10:12.594Z,6.00
2023-12-23T09:12:41.185Z,6.00
2023-12-23T09:15:11.436Z,6.00
2023-12-23T09:17:39.891Z,6.10
2023-12-23T09:20:11.605Z,6.10
2023-12-23T09:22:40.027Z,6.10
2023-12-23T09:25:08.619Z,6.10
2023-12-23T09:27:36.804Z,6.20
2023-12-23T09:30:05.716Z,6.30
2023-12-23T09:32:35.276Z,6.20
2023-12-23T09:35:05.968Z,6.30
2023-12-23T09:37:35.235Z,6.30
2023-12-23T09:40:03.947Z,6.30
2023-12-23T09:42:32.361Z,6.30
2023-12-23T09:45:04.054Z,6.40
2023-12-23T09:47:32.457Z,6.50
2023-12-23T09:50:02.274Z,6.40
2023-12-23T09:52:31.942Z,6.50
2023-12-23T09:55:03.400Z,6.40
2023-12-23T09:57:33.252Z,6.50
2023-12-23T10:00:01.681Z,6.50
2023-12-23T10:02:30.196Z,6.50
2023-12-23T10:04:58.392Z,6.50
2023-12-23T10:07:28.536Z,6.50
2023-12-23T10:09:56.603Z,6.60
2023-12-23T10:12:24.849Z,6.70
2023-12-23T10:14:53.505Z,6.70
2023-12-23T10:17:21.718Z,6.70
2023-12-23T10:19:50.162Z,6.70
2023-12-23T10:22:18.665Z,6.60
2023-12-23T10:24:48.183Z,6.60
2023-12-23T10:27:17.799Z,6.70
2023-12-23T10:29:50.386Z,6.70
2023-12-23T10:32:26.051Z,6.70
2023-12-23T10:35:04.033Z,6.70
2023-12-23T10:37:32.682Z,6.70
2023-12-23T10:40:07.523Z,6.80
2023-12-23T10:42:37.265Z,6.90
2023-12-23T10:45:06.622Z,6.90
2023-12-23T10:47:36.480Z,6.80
2023-12-23T10:50:06.774Z,6.80
2023-12-23T10:52:35.619Z,6.90
2023-12-23T10:55:06.273Z,6.80
2023-12-23T10:57:36.394Z,6.90
2023-12-23T11:00:05.168Z,6.90
2023-12-23T11:02:36.124Z,6.90
2023-12-23T11:05:08.724Z,6.90
2023-12-23T11:07:42.528Z,6.90
2023-12-23T11:10:14.107Z,6.90
2023-12-23T11:12:46.456Z,7.00
2023-12-23T11:15:15.116Z,6.90
2023-12-23T11:17:45.254Z,7.00
2023-12-23T11:20:52.192Z,7.00
2023-12-23T11:23:36.620Z,7.00
2023-12-23T11:26:06.735Z,7.00
2023-12-23T11:28:37.765Z,7.00
2023-12-23T11:31:06.906Z,7.00
2023-12-23T11:33:37.604Z,7.00
2023-12-23T11:36:06.993Z,7.10
2023-12-23T11:38:48.441Z,7.00
2023-12-23T11:41:22.604Z,7.00
2023-12-23T11:43:52.106Z,7.10
2023-12-23T11:46:23.410Z,7.10
2023-12-23T11:48:51.722Z,7.00
2023-12-23T11:51:20.025Z,7.00
2023-12-23T11:53:48.450Z,7.00
2023-12-23T11:56:18.109Z,7.00
2023-12-23T11:58:47.720Z,7.00
2023-12-23T12:01:16.057Z,7.10
2023-12-23T12:03:44.224Z,7.10
2023-12-23T12:06:12.560Z,7.10
2023-12-23T12:08:40.824Z,7.10
2023-12-23T12:11:09.249Z,7.00
2023-12-23T12:13:38.831Z,7.10
2023-12-23T12:16:08.757Z,7.10
2023-12-23T12:18:37.377Z,7.10
2023-12-23T12:21:05.812Z,7.10
2023-12-23T12:23:34.055Z,7.10
2023-12-23T12:26:02.613Z,7.10
2023-12-23T12:28:32.322Z,7.10
2023-12-23T12:31:12.003Z,7.10
2023-12-23T12:33:42.552Z,7.10
2023-12-23T12:36:14.629Z,7.10
2023-12-23T12:38:44.090Z,7.10
2023-12-23T12:41:13.534Z,7.20
2023-12-23T12:43:43.302Z,7.10
2023-12-23T12:46:16.061Z,7.20
2023-12-23T12:48:46.002Z,7.20
2023-12-23T12:51:15.764Z,7.20
2023-12-23T12:53:43.978Z,7.20
2023-12-23T12:56:13.174Z,7.20
2023-12-23T13:01:10.264Z,7.20
2023-12-23T13:03:39.851Z,7.20
2023-12-23T13:06:08.355Z,7.20
2023-12-23T13:08:35.801Z,7.20
2023-12-23T13:11:07.070Z,7.20
2023-12-23T13:13:35.186Z,7.20
2023-12-23T13:16:05.849Z,7.20
2023-12-23T13:18:45.219Z,7.20
2023-12-23T13:21:21.909Z,7.30
2023-12-23T13:23:50.272Z,7.30
2023-12-23T13:26:19.041Z,7.30
2023-12-23T13:28:50.726Z,7.30
2023-12-23T13:31:20.378Z,7.30
2023-12-23T13:33:48.831Z,7.20
2023-12-23T13:36:17.067Z,7.30
2023-12-23T13:38:47.016Z,7.30
2023-12-23T13:41:19.798Z,7.30
2023-12-23T13:43:48.236Z,7.30
2023-12-23T13:46:16.410Z,7.30
2023-12-23T13:48:44.773Z,7.30
2023-12-23T13:51:12.968Z,7.30
2023-12-23T13:53:41.105Z,7.40
2023-12-23T13:56:10.811Z,7.40
2023-12-23T13:58:39.024Z,7.40
2023-12-23T14:01:07.554Z,7.40
2023-12-23T14:03:36.351Z,7.40
2023-12-23T14:06:04.722Z,7.40
2023-12-23T14:08:33.747Z,7.40
2023-12-23T14:11:01.919Z,7.30
2023-12-23T14:13:31.515Z,7.40
2023-12-23T14:15:59.714Z,7.40
2023-12-23T14:18:27.937Z,7.40
2023-12-23T14:20:56.133Z,7.40
2023-12-23T14:23:24.301Z,7.40
2023-12-23T14:25:52.481Z,7.40
2023-12-23T14:28:20.600Z,7.40
2023-12-23T14:30:50.104Z,7.40
2023-12-23T14:33:18.302Z,7.40
2023-12-23T14:35:46.561Z,7.40
2023-12-23T14:38:14.691Z,7.40
2023-12-23T14:40:42.969Z,7.50
2023-12-23T14:43:11.090Z,7.50
2023-12-23T14:45:39.873Z,7.50
2023-12-23T14:48:09.751Z,7.40
2023-12-23T14:50:38.239Z,7.50
2023-12-23T14:53:07.010Z,7.50
2023-12-23T14:55:38.620Z,7.50
2023-12-23T14:58:07.502Z,7.40
2023-12-23T15:00:35.659Z,7.40
2023-12-23T15:03:04.333Z,7.40
2023-12-23T15:05:34.382Z,7.40
2023-12-23T15:08:02.704Z,7.40
2023-12-23T15:10:31.204Z,7.50
2023-12-23T15:13:05.094Z,7.50
2023-12-23T15:15:33.995Z,7.50
2023-12-23T15:18:02.138Z,7.40
2023-12-23T15:20:30.492Z,7.40
2023-12-23T15:23:00.105Z,7.40
2023-12-23T15:25:28.243Z,7.50
2023-12-23T15:27:56.341Z,7.50
2023-12-23T15:30:24.471Z,7.50
2023-12-23T15:32:54.198Z,7.50
2023-12-23T15:35:22.512Z,7.50
2023-12-23T15:37:50.720Z,7.40
2023-12-23T15:40:20.326Z,7.50
2023-12-23T15:42:48.774Z,7.50
2023-12-23T15:45:17.229Z,7.50
2023-12-23T15:47:45.459Z,7.50
2023-12-23T15:50:14.149Z,7.50
2023-12-23T15:52:42.325Z,7.40
2023-12-23T15:55:11.585Z,7.40
2023-12-23T15:57:41.065Z,7.40
2023-12-23T16:00:10.592Z,7.40
2023-12-23T16:02:38.848Z,7.50
2023-12-23T16:05:09.306Z,7.50
2023-12-23T16:07:37.748Z,7.50
2023-12-23T16:10:06.369Z,7.40
2023-12-23T16:12:34.978Z,7.40
2023-12-23T16:15:04.631Z,7.40
2023-12-23T16:17:32.889Z,7.40
2023-12-23T16:20:02.004Z,7.50
2023-12-23T16:22:30.226Z,7.50
2023-12-23T16:24:58.887Z,7.50
2023-12-23T16:27:27.359Z,7.50
2023-12-23T16:29:55.659Z,7.50
2023-12-23T16:32:25.338Z,7.50
2023-12-23T16:34:54.259Z,7.50
2023-12-23T16:37:24.686Z,7.50
2023-12-23T16:39:54.532Z,7.50
2023-12-23T16:42:22.708Z,7.50
2023-12-23T16:44:50.957Z,7.50
2023-12-23T16:47:19.274Z,7.50
2023-12-23T16:49:48.968Z,7.50
2023-12-23T16:52:17.323Z,7.50
2023-12-23T16:54:46.233Z,7.50
2023-12-23T16:57:14.350Z,7.50
2023-12-23T16:59:42.469Z,7.50
2023-12-23T17:02:10.683Z,7.50
2023-12-23T17:04:38.953Z,7.50
2023-12-23T17:07:08.430Z,7.50
2023-12-23T17:09:36.618Z,7.40
2023-12-23T17:12:05.395Z,7.40
2023-12-23T17:14:33.639Z,7.40
2023-12-23T17:17:04.313Z,7.40
2023-12-23T17:19:32.915Z,7.40
2023-12-23T17:22:01.249Z,7.40
2023-12-23T17:24:30.722Z,7.40
2023-12-23T17:26:58.809Z,7.40
2023-12-23T17:29:27.072Z,7.40
2023-12-23T17:31:55.508Z,7.30
2023-12-23T17:34:23.827Z,7.30
2023-12-23T17:36:51.997Z,7.30
2023-12-23T17:39:22.359Z,7.30
2023-12-23T17:41:52.491Z,7.30
2023-12-23T17:44:20.643Z,7.30
2023-12-23T17:46:49.171Z,7.30
2023-12-23T17:49:18.527Z,7.20
2023-12-23T17:51:46.878Z,7.30
2023-12-23T17:54:14.960Z,7.30
2023-12-23T17:56:46.131Z,7.30
2023-12-23T17:59:15.738Z,7.30
2023-12-23T18:01:43.840Z,7.30
2023-12-23T18:04:11.972Z,7.40
2023-12-23T18:06:40.138Z,7.40
2023-12-23T18:09:08.376Z,7.40
2023-12-23T18:11:36.549Z,7.30
2023-12-23T18:14:04.998Z,7.40
2023-12-23T18:16:34.561Z,7.40
2023-12-23T18:19:02.773Z,7.30
2023-12-23T18:21:30.863Z,7.30
2023-12-23T18:23:59.005Z,7.30
2023-12-23T18:26:28.648Z,7.30
2023-12-23T18:28:56.770Z,7.30
2023-12-23T18:31:25.061Z,7.30
2023-12-23T18:33:55.409Z,7.40
2023-12-23T18:36:23.702Z,7.40
2023-12-23T18:38:53.830Z,7.40
2023-12-23T18:41:23.741Z,7.40
2023-12-23T18:43:51.881Z,7.40
2023-12-23T18:46:20.072Z,7.40
2023-12-23T18:48:48.675Z,7.40
2023-12-23T18:51:18.293Z,7.40
2023-12-23T18:53:46.536Z,7.40
2023-12-23T18:56:17.112Z,7.40
2023-12-23T18:58:46.008Z,7.40
2023-12-23T19:01:14.232Z,7.40
2023-12-23T19:03:42.532Z,7.40
2023-12-23T19:06:12.965Z,7.40
2023-12-23T19:08:42.584Z,7.50
2023-12-23T19:11:11.278Z,7.40
2023-12-23T19:13:39.467Z,7.40
2023-12-23T19:16:10.426Z,7.50
2023-12-23T19:18:38.858Z,7.50
2023-12-23T19:21:07.106Z,7.50
2023-12-23T19:23:35.251Z,7.50
2023-12-23T19:26:04.983Z,7.40
2023-12-23T19:28:33.450Z,7.50
2023-12-23T19:31:04.446Z,7.50
2023-12-23T19:33:32.941Z,7.50
2023-12-23T19:36:01.160Z,7.50
2023-12-23T19:38:29.277Z,7.50
2023-12-23T19:40:57.554Z,7.50
2023-12-23T19:43:27.033Z,7.50
2023-12-23T19:45:55.223Z,7.50
2023-12-23T19:48:23.443Z,7.50
2023-12-23T19:50:51.698Z,7.60
2023-12-23T19:53:19.886Z,7.50
2023-12-23T19:55:48.093Z,7.50
2023-12-23T19:58:16.241Z,7.50
2023-12-23T20:00:46.109Z,7.50
2023-12-23T20:03:14.388Z,7.50
2023-12-23T20:05:42.720Z,7.50
2023-12-23T20:08:11.130Z,7.50
2023-12-23T20:10:40.490Z,7.60
2023-12-23T20:13:08.635Z,7.50
2023-12-23T20:15:36.809Z,7.50
2023-12-23T20:18:09.017Z,7.50
2023-12-23T20:20:37.515Z,7.50
2023-12-23T20:23:06.029Z,7.50
2023-12-23T20:25:34.133Z,7.50
2023-12-23T20:28:02.288Z,7.50
2023-12-23T20:30:30.649Z,7.50
2023-12-23T20:32:58.758Z,7.50
2023-12-23T20:35:28.355Z,7.50
2023-12-23T20:37:56.656Z,7.50
2023-12-23T20:40:24.884Z,7.50
2023-12-23T20:42:53.318Z,7.50
2023-12-23T20:45:21.615Z,7.50
2023-12-23T20:47:50.040Z,7.50
2023-12-23T20:50:18.697Z,7.50
2023-12-23T20:52:48.787Z,7.50
2023-12-23T20:55:19.115Z,7.50
2023-12-23T20:57:47.312Z,7.50
2023-12-23T21:00:21.733Z,7.50
2023-12-23T21:02:50.167Z,7.50
2023-12-23T21:05:18.610Z,7.50
2023-12-23T21:07:48.324Z,7.50
2023-12-23T21:10:18.917Z,7.60
2023-12-23T21:12:49.052Z,7.50
2023-12-23T21:15:17.895Z,7.50
2023-12-23T21:17:46.143Z,7.50
2023-12-23T21:20:14.538Z,7.50
2023-12-23T21:22:42.948Z,7.50
2023-12-23T21:25:12.435Z,7.50
2023-12-23T21:27:40.673Z,7.50
2023-12-23T21:30:10.018Z,7.40
2023-12-23T21:32:38.486Z,7.50
2023-12-23T21:35:07.483Z,7.50
2023-12-23T21:37:35.729Z,7.50
2023-12-23T21:40:03.908Z,7.50
2023-12-23T21:42:33.430Z,7.50
2023-12-23T21:45:01.557Z,7.50
2023-12-23T21:47:29.776Z,7.50
2023-12-23T21:49:57.995Z,7.50
2023-12-23T21:52:27.756Z,7.40
2023-12-23T21:54:56.290Z,7.50
2023-12-23T21:57:24.390Z,7.40
2023-12-23T21:59:53.935Z,7.50
2023-12-23T22:02:22.198Z,7.50
2023-12-23T22:04:50.449Z,7.50
2023-12-23T22:07:18.562Z,7.50
2023-12-23T22:09:46.724Z,7.50
2023-12-23T22:12:14.973Z,7.50
2023-12-23T22:14:43.093Z,7.50
2023-12-23T22:17:12.675Z,7.50
2023-12-23T22:19:40.828Z,7.40
2023-12-23T22:22:08.953Z,7.50
2023-12-23T22:24:37.035Z,7.50
2023-12-23T22:27:04.532Z,7.50
2023-12-23T22:29:32.756Z,7.50
2023-12-23T22:32:00.952Z,7.50
2023-12-23T22:34:30.609Z,7.40
2023-12-23T22:36:58.770Z,7.50
2023-12-23T22:39:27.125Z,7.40
2023-12-23T22:41:55.599Z,7.50
2023-12-23T22:44:24.623Z,7.50
2023-12-23T22:46:52.925Z,7.50
2023-12-23T22:49:21.284Z,7.50
2023-12-23T22:51:50.833Z,7.50
2023-12-23T22:54:19.002Z,7.50
2023-12-23T22:56:47.145Z,7.50
2023-12-23T22:59:18.054Z,7.50
2023-12-23T23:01:46.173Z,7.40
2023-12-23T23:04:14.273Z,7.40
2023-12-23T23:06:42.613Z,7.40
2023-12-23T23:09:13.170Z,7.40
2023-12-23T23:11:41.480Z,7.40
2023-12-23T23:14:09.716Z,7.40
2023-12-23T23:16:37.999Z,7.40
2023-12-23T23:19:06.281Z,7.30
2023-12-23T23:21:34.871Z,7.40
2023-12-23T23:24:03.327Z,7.40
2023-12-23T23:26:32.892Z,7.40
2023-12-23T23:29:01.332Z,7.40
2023-12-23T23:31:29.451Z,7.40
2023-12-23T23:33:57.651Z,7.40
2023-12-23T23:36:25.830Z,7.40
2023-12-23T23:38:53.958Z,7.40
2023-12-23T23:41:22.530Z,7.40
2023-12-23T23:43:52.116Z,7.40
2023-12-23T23:46:21.602Z,7.40
2023-12-23T23:48:49.775Z,7.40
2023-12-23T23:51:21.923Z,7.40
2023-12-23T23:53:50.612Z,7.30
2023-12-23T23:56:20.678Z,7.40
2023-12-23T23:58:51.690Z,7.40
